Time;durP1;ratioP1;P1;durP2;ratioP2;P2;SDS_P1;SDS_P2;PMS_P1;PMS_P2;Temp;Humidity;BMP_temperature;BMP_pressure;BME280_temperature;BME280_humidity;BME280_pressure;Samples;Min_cycle;Max_cycle;Signal;HPM_P1;HPM_P2
2023/05/09 00:02:18;;;;;;;5.75;4.60;;;;;;;-146.18;100.00;67994.34;10067255;28;20047;-67
2023/05/09 00:07:15;;;;;;;7.68;4.35;;;;;;;-146.18;100.00;67994.34;10065041;28;20043;-67
2023/05/09 00:12:11;;;;;;;5.78;4.00;;;;;;;-146.18;100.00;67994.34;10067404;28;20050;-67
2023/05/09 00:17:08;;;;;;;5.47;4.43;;;;;;;-146.18;100.00;67994.34;10049781;28;20047;-69
2023/05/09 00:22:05;;;;;;;5.15;4.07;;;;;;;-146.18;100.00;67994.34;10064905;28;20450;-71
2023/05/09 00:27:02;;;;;;;5.22;4.20;;;;;;;-146.18;100.00;67994.34;10065073;28;20051;-70
2023/05/09 00:31:59;;;;;;;4.30;3.90;;;;;;;-146.18;100.00;67994.34;10065742;28;20067;-71
2023/05/09 00:36:55;;;;;;;9.50;4.50;;;;;;;-146.18;100.00;67994.34;10057290;28;20047;-71
2023/05/09 00:41:52;;;;;;;5.75;3.95;;;;;;;-146.18;100.00;67994.34;10067434;28;20067;-67
2023/05/09 00:46:49;;;;;;;5.28;4.38;;;;;;;-146.18;100.00;67994.34;10055602;28;20074;-68
2023/05/09 00:51:46;;;;;;;4.97;4.35;;;;;;;-146.18;100.00;67994.34;10061664;28;20067;-68
2023/05/09 00:56:43;;;;;;;7.00;4.55;;;;;;;-146.18;100.00;67994.34;10065336;28;20143;-69
2023/05/09 01:01:40;;;;;;;5.47;4.10;;;;;;;-146.18;100.00;67994.34;10060426;28;20044;-69
2023/05/09 01:07:05;;;;;;;5.25;4.32;;;;;;;-146.18;100.00;67994.34;10052800;28;20077;-69
2023/05/09 01:12:12;;;;;;;5.70;4.35;;;;;;;-146.18;100.00;67994.34;10049427;28;20543;-71
2023/05/09 01:17:17;;;;;;;5.72;4.07;;;;;;;-146.18;100.00;67994.34;10062370;28;20114;-71
2023/05/09 01:22:15;;;;;;;6.22;4.20;;;;;;;-146.18;100.00;67994.34;10061174;28;20142;-71
2023/05/09 01:27:22;;;;;;;7.10;4.28;;;;;;;-146.18;100.00;67994.34;10061718;28;20067;-71
2023/05/09 01:32:23;;;;;;;8.27;4.10;;;;;;;-146.18;100.00;67994.34;10067137;28;20039;-71
2023/05/09 01:37:29;;;;;;;5.80;4.07;;;;;;;-146.18;100.00;67994.34;10059874;28;20047;-71
2023/05/09 01:42:30;;;;;;;8.95;4.00;;;;;;;-146.18;100.00;67994.34;10057448;28;20074;-71
2023/05/09 01:47:27;;;;;;;5.30;4.25;;;;;;;-146.18;100.00;67994.34;10057343;28;20130;-71
2023/05/09 01:52:25;;;;;;;4.75;3.95;;;;;;;-146.18;100.00;67994.34;10060392;28;20043;-72
2023/05/09 01:57:23;;;;;;;6.13;4.00;;;;;;;-146.18;100.00;67994.34;10059784;28;20133;-71
2023/05/09 02:02:20;;;;;;;5.32;4.70;;;;;;;-146.18;100.00;67994.34;10065110;28;20131;-69
2023/05/09 02:07:17;;;;;;;7.93;4.47;;;;;;;-146.18;100.00;67994.34;10068715;28;20070;-72
2023/05/09 02:12:13;;;;;;;7.57;4.45;;;;;;;-146.18;100.00;67994.34;10061056;28;20090;-68
2023/05/09 02:17:15;;;;;;;6.95;4.43;;;;;;;-146.18;100.00;67994.34;10058714;28;20075;-67
2023/05/09 02:22:13;;;;;;;5.15;4.10;;;;;;;-146.18;100.00;67994.34;10051462;28;20082;-68
2023/05/09 02:27:11;;;;;;;9.57;5.75;;;;;;;-146.18;100.00;67994.34;10053901;28;20050;-68
2023/05/09 02:32:12;;;;;;;6.28;5.15;;;;;;;-146.18;100.00;67994.34;10065971;28;20101;-68
2023/05/09 02:37:10;;;;;;;5.85;4.63;;;;;;;-146.18;100.00;67994.34;10055132;28;20039;-68
2023/05/09 02:42:09;;;;;;;8.30;4.63;;;;;;;-146.18;100.00;67994.34;10062472;28;20727;-68
2023/05/09 02:47:06;;;;;;;5.38;4.50;;;;;;;-146.18;100.00;67994.34;10068068;28;20050;-68
2023/05/09 02:52:02;;;;;;;6.95;5.05;;;;;;;-146.18;100.00;67994.34;10074584;28;20658;-68
2023/05/09 02:56:59;;;;;;;6.38;4.75;;;;;;;-146.18;100.00;67994.34;10065201;28;20061;-74
2023/05/09 03:01:55;;;;;;;6.28;4.93;;;;;;;-146.18;100.00;67994.34;10056934;28;20547;-74
2023/05/09 03:06:53;;;;;;;5.95;4.90;;;;;;;-146.18;100.00;67994.34;10056027;28;20051;-74
2023/05/09 03:11:49;;;;;;;8.55;5.05;;;;;;;-146.18;100.00;67994.34;10072455;28;20043;-74
2023/05/09 03:16:46;;;;;;;6.15;4.97;;;;;;;-146.18;100.00;67994.34;10054319;28;20078;-68
2023/05/09 03:21:42;;;;;;;7.18;5.47;;;;;;;-146.18;100.00;67994.34;10053930;28;20047;-67
2023/05/09 03:26:39;;;;;;;5.18;4.68;;;;;;;-146.18;100.00;67994.34;10062470;28;20138;-70
2023/05/09 03:31:35;;;;;;;5.90;5.13;;;;;;;-146.18;100.00;67994.34;10059990;28;20047;-70
2023/05/09 03:36:39;;;;;;;7.38;4.90;;;;;;;-146.18;100.00;67994.34;10045443;28;20110;-77
2023/05/09 03:41:40;;;;;;;5.95;5.03;;;;;;;-146.18;100.00;67994.34;10053180;28;20050;-77
2023/05/09 03:46:40;;;;;;;;;;;;;;;-146.18;100.00;67994.34;10045320;28;20066;-75
2023/05/09 03:51:37;;;;;;;8.02;6.15;;;;;;;-146.18;100.00;67994.34;10060582;28;19970;-74
2023/05/09 03:56:37;;;;;;;7.05;5.85;;;;;;;-146.18;100.00;67994.34;10041301;28;20048;-74
2023/05/09 04:01:35;;;;;;;9.18;5.70;;;;;;;-146.18;100.00;67994.34;10048786;28;20540;-74
2023/05/09 04:06:35;;;;;;;6.53;5.90;;;;;;;-146.18;100.00;67994.34;10060066;28;20117;-74
2023/05/09 04:11:31;;;;;;;8.38;5.82;;;;;;;-146.18;100.00;67994.34;10061259;28;20128;-74
2023/05/09 04:16:35;;;;;;;8.55;7.07;;;;;;;-146.18;100.00;67994.34;10059720;28;20055;-75
2023/05/09 04:21:32;;;;;;;7.40;6.35;;;;;;;-146.18;100.00;67994.34;10062022;28;20070;-75
2023/05/09 04:26:30;;;;;;;11.13;6.35;;;;;;;-146.18;100.00;67994.34;10050041;28;20548;-75
2023/05/09 04:31:44;;;;;;;10.43;6.35;;;;;;;-146.18;100.00;67994.34;10062513;28;20096;-76
2023/05/09 04:36:51;;;;;;;6.72;6.03;;;;;;;-146.18;100.00;67994.34;10044209;28;20090;-75
2023/05/09 04:42:19;;;;;;;10.10;6.43;;;;;;;-146.18;100.00;67994.34;10045238;28;20047;-76
2023/05/09 04:47:28;;;;;;;8.15;7.05;;;;;;;-146.18;100.00;67994.34;10045884;28;20506;-75
2023/05/09 04:52:28;;;;;;;9.70;7.60;;;;;;;-146.18;100.00;67994.34;10046844;28;20596;-75
2023/05/09 04:57:26;;;;;;;11.23;7.35;;;;;;;-146.18;100.00;67994.34;10044968;28;20103;-75
2023/05/09 05:02:24;;;;;;;7.60;6.90;;;;;;;-146.18;100.00;67994.34;10039119;28;20079;-75
2023/05/09 05:07:20;;;;;;;8.13;6.90;;;;;;;-146.18;100.00;67994.34;10057447;28;20051;-75
2023/05/09 05:12:17;;;;;;;8.90;7.13;;;;;;;-146.18;100.00;67994.34;10048330;28;20054;-75
2023/05/09 05:17:16;;;;;;;12.43;7.75;;;;;;;-146.18;100.00;67994.34;10054390;28;20106;-76
2023/05/09 05:22:19;;;;;;;7.85;6.63;;;;;;;-146.18;100.00;67994.34;10052342;28;20043;-76
2023/05/09 05:27:40;;;;;;;10.07;7.65;;;;;;;-146.18;100.00;67994.34;10019215;29;20039;-77
2023/05/09 05:32:42;;;;;;;9.73;7.18;;;;;;;-146.18;100.00;67994.34;10025512;28;20078;-76
2023/05/09 05:38:55;;;;;;;8.57;7.57;;;;;;;-146.18;100.00;67994.34;10052182;29;20048;-76
2023/05/09 05:44:54;;;;;;;8.25;6.93;;;;;;;-146.18;100.00;67994.34;10053349;29;20035;-76
2023/05/09 05:51:11;;;;;;;9.10;6.90;;;;;;;-146.18;100.00;67994.34;10033690;28;20051;-76
2023/05/09 05:57:15;;;;;;;10.48;7.95;;;;;;;-146.18;100.00;67994.34;10042736;28;20047;-76
2023/05/09 06:15:29;;;;;;;9.00;7.47;;;;;;;-146.18;100.00;67994.34;10056410;28;20059;-76
2023/05/09 06:20:26;;;;;;;;;;;;;;;-146.18;100.00;67994.34;10061826;28;20043;-77
2023/05/09 06:25:24;;;;;;;9.15;7.05;;;;;;;-146.18;100.00;67994.34;10047462;28;20002;-75
2023/05/09 06:30:22;;;;;;;7.72;6.93;;;;;;;-146.18;100.00;67994.34;10062519;28;20050;-75
2023/05/09 06:35:23;;;;;;;8.50;7.28;;;;;;;-146.18;100.00;67994.34;10045589;28;20280;-76
2023/05/09 06:40:20;;;;;;;7.90;6.93;;;;;;;-146.18;100.00;67994.34;10057644;28;20134;-74
2023/05/09 06:45:18;;;;;;;7.43;6.63;;;;;;;-146.18;100.00;67994.34;10057106;28;20059;-77
2023/05/09 06:50:16;;;;;;;7.78;7.07;;;;;;;-146.18;100.00;67994.34;10051312;28;20048;-74
2023/05/09 06:55:14;;;;;;;9.77;8.00;;;;;;;-146.18;100.00;67994.34;10048656;28;20526;-77
2023/05/09 07:00:12;;;;;;;7.95;7.15;;;;;;;-146.18;100.00;67994.34;10049561;28;20078;-76
2023/05/09 07:05:12;;;;;;;10.15;6.95;;;;;;;-146.18;100.00;67994.34;10043244;28;20114;-77
2023/05/09 07:10:48;;;;;;;10.93;7.22;;;;;;;-146.18;100.00;67994.34;10051288;29;20055;-76
2023/05/09 07:16:42;;;;;;;8.23;6.97;;;;;;;-146.18;100.00;67994.34;10003182;28;20052;-76
2023/05/09 07:22:53;;;;;;;8.48;6.82;;;;;;;-146.18;100.00;67994.34;10008271;29;20052;-77
2023/05/09 07:48:19;;;;;;;7.78;7.07;;;;;;;-146.18;100.00;67994.34;10034721;29;20031;-77
2023/05/09 07:54:34;;;;;;;8.88;7.10;;;;;;;-146.18;100.00;67994.34;10164151;28;20451;-77
2023/05/09 08:01:11;;;;;;;9.27;7.30;;;;;;;-146.18;100.00;67994.34;10030942;29;20055;-77
2023/05/09 08:06:53;;;;;;;7.03;6.33;;;;;;;-146.18;100.00;67994.34;10013873;29;20055;-77
2023/05/09 08:12:27;;;;;;;9.07;7.40;;;;;;;-146.18;100.00;67994.34;10025378;29;20675;-77
2023/05/09 08:17:35;;;;;;;8.80;7.10;;;;;;;-146.18;100.00;67994.34;10114054;28;20057;-76
2023/05/09 08:23:09;;;;;;;8.35;7.00;;;;;;;-146.18;100.00;67994.34;10119372;28;20051;-76
2023/05/09 08:28:36;;;;;;;8.20;7.18;;;;;;;-146.18;100.00;67994.34;10045209;28;20074;-75
2023/05/09 08:34:59;;;;;;;7.57;6.88;;;;;;;-146.18;100.00;67994.34;10129128;28;20053;-75
2023/05/09 08:40:50;;;;;;;7.25;6.63;;;;;;;-146.18;100.00;67994.34;9857058;29;20049;-75
2023/05/09 08:46:30;;;;;;;6.75;6.15;;;;;;;-146.18;100.00;67994.34;9808027;29;20058;-75
2023/05/09 08:52:37;;;;;;;8.93;6.60;;;;;;;-146.18;100.00;67994.34;9851106;29;20535;-75
2023/05/09 08:58:18;;;;;;;7.97;7.18;;;;;;;-146.18;100.00;67994.34;9805021;29;20528;-75
2023/05/09 09:04:06;;;;;;;8.30;7.45;;;;;;;-146.18;100.00;67994.34;9877998;29;20032;-75
2023/05/09 09:09:21;;;;;;;8.70;7.00;;;;;;;-146.18;100.00;67994.34;9979946;29;20052;-75
2023/05/09 09:15:19;;;;;;;9.23;6.75;;;;;;;-146.18;100.00;67994.34;10056127;28;20042;-75
2023/05/09 09:21:40;;;;;;;8.77;6.57;;;;;;;-146.18;100.00;67994.34;10097528;28;20046;-75
2023/05/09 09:28:09;;;;;;;7.95;6.68;;;;;;;-146.18;100.00;67994.34;10131183;28;20084;-76
2023/05/09 09:33:28;;;;;;;8.35;6.32;;;;;;;-146.18;100.00;67994.34;10231375;28;20041;-74
2023/05/09 09:39:13;;;;;;;7.80;7.00;;;;;;;-146.18;100.00;67994.34;10208631;28;20483;-75
2023/05/09 09:51:13;;;;;;;9.15;7.18;;;;;;;-146.18;100.00;67994.34;10172986;28;20046;-75
2023/05/09 09:56:54;;;;;;;8.32;6.93;;;;;;;-146.18;100.00;67994.34;10221194;28;20056;-77
2023/05/09 10:02:34;;;;;;;7.50;6.82;;;;;;;-146.18;100.00;67994.34;10215285;28;20104;-77
2023/05/09 10:08:18;;;;;;;8.77;7.53;;;;;;;-146.18;100.00;67994.34;10210360;28;20046;-77
2023/05/09 10:13:20;;;;;;;7.80;7.03;;;;;;;-146.18;100.00;67994.34;10194908;28;20042;-75
2023/05/09 10:18:35;;;;;;;8.32;7.45;;;;;;;-146.18;100.00;67994.34;10208105;28;20057;-75
2023/05/09 10:24:04;;;;;;;9.20;7.22;;;;;;;-146.18;100.00;67994.34;10222041;28;20499;-76
2023/05/09 10:29:30;;;;;;;7.57;6.78;;;;;;;-146.18;100.00;67994.34;10197863;28;20061;-76
2023/05/09 10:34:52;;;;;;;9.93;7.28;;;;;;;-146.18;100.00;67994.34;10224188;28;20598;-75
2023/05/09 10:40:33;;;;;;;10.52;7.20;;;;;;;-146.18;100.00;67994.34;10218856;28;20051;-76
2023/05/09 10:46:13;;;;;;;8.32;7.47;;;;;;;-146.18;100.00;67994.34;10195122;28;20050;-76
2023/05/09 10:51:42;;;;;;;7.85;7.18;;;;;;;-146.18;100.00;67994.34;10183254;28;20041;-75
2023/05/09 10:56:55;;;;;;;8.77;7.40;;;;;;;-146.18;100.00;67994.34;10227395;28;20045;-76
2023/05/09 11:02:07;;;;;;;7.95;7.22;;;;;;;-146.18;100.00;67994.34;10216227;28;20055;-76
2023/05/09 11:07:25;;;;;;;7.43;6.82;;;;;;;-146.18;100.00;67994.34;10215230;28;20050;-75
2023/05/09 11:12:22;;;;;;;9.52;7.05;;;;;;;-146.18;100.00;67994.34;10227921;28;20042;-75
2023/05/09 11:17:23;;;;;;;10.52;6.97;;;;;;;-146.18;100.00;67994.34;10229025;28;20045;-75
2023/05/09 11:22:23;;;;;;;13.97;7.33;;;;;;;-146.18;100.00;67994.34;10225678;28;20420;-75
2023/05/09 11:27:25;;;;;;;7.75;7.00;;;;;;;-146.18;100.00;67994.34;10226038;28;20041;-75
2023/05/09 11:32:29;;;;;;;8.98;6.70;;;;;;;-146.18;100.00;67994.34;10223248;28;20049;-75
2023/05/09 11:37:31;;;;;;;10.52;6.57;;;;;;;-146.18;100.00;67994.34;10223101;28;20049;-76
2023/05/09 11:42:31;;;;;;;7.78;6.25;;;;;;;-146.18;100.00;67994.34;10222259;28;20380;-75
2023/05/09 11:47:30;;;;;;;8.02;7.03;;;;;;;-146.18;100.00;67994.34;10219665;28;20041;-75
2023/05/09 11:52:31;;;;;;;9.48;7.07;;;;;;;-146.18;100.00;67994.34;10225420;28;20041;-75
2023/05/09 11:57:28;;;;;;;7.53;6.82;;;;;;;-146.18;100.00;67994.34;10224193;28;20076;-75
2023/05/09 12:02:25;;;;;;;10.45;6.97;;;;;;;-146.18;100.00;67994.34;10230345;28;20056;-75
2023/05/09 12:07:23;;;;;;;10.25;5.93;;;;;;;-146.18;100.00;67994.34;10220233;28;20043;-75
2023/05/09 12:12:21;;;;;;;7.78;6.97;;;;;;;-146.18;100.00;67994.34;10226496;28;20132;-75
2023/05/09 12:17:21;;;;;;;10.13;6.80;;;;;;;-146.18;100.00;67994.34;10227666;28;20053;-75
2023/05/09 12:22:20;;;;;;;12.85;9.45;;;;;;;-146.18;100.00;67994.34;10229461;28;20124;-76
2023/05/09 12:27:17;;;;;;;13.88;8.93;;;;;;;-146.18;100.00;67994.34;10188755;28;20046;-75
2023/05/09 12:32:15;;;;;;;9.75;8.68;;;;;;;-146.18;100.00;67994.34;10183538;28;20129;-75
2023/05/09 12:37:18;;;;;;;9.73;8.18;;;;;;;-146.18;100.00;67994.34;10179981;28;20049;-75
2023/05/09 12:42:15;;;;;;;8.00;6.43;;;;;;;-146.18;100.00;67994.34;10181772;28;20053;-76
2023/05/09 12:47:13;;;;;;;8.85;7.50;;;;;;;-146.18;100.00;67994.34;10182069;28;20054;-75
2023/05/09 12:52:19;;;;;;;8.95;6.90;;;;;;;-146.18;100.00;67994.34;10185891;28;20041;-75
2023/05/09 12:57:22;;;;;;;8.43;6.28;;;;;;;-146.18;100.00;67994.34;10182993;28;20067;-75
2023/05/09 13:02:19;;;;;;;12.38;7.13;;;;;;;-146.18;100.00;67994.34;10188411;28;20045;-75
2023/05/09 13:07:16;;;;;;;9.70;6.50;;;;;;;-146.18;100.00;67994.34;10182248;28;20053;-75
2023/05/09 13:12:13;;;;;;;8.15;6.18;;;;;;;-146.18;100.00;67994.34;10184700;28;20412;-75
2023/05/09 13:17:10;;;;;;;9.88;7.35;;;;;;;-146.18;100.00;67994.34;10183287;28;20076;-75
2023/05/09 13:22:06;;;;;;;7.28;6.55;;;;;;;-146.18;100.00;67994.34;10184174;28;20045;-75
2023/05/09 13:27:04;;;;;;;9.18;6.90;;;;;;;-146.18;100.00;67994.34;10185572;28;20048;-75
2023/05/09 13:32:03;;;;;;;11.88;6.15;;;;;;;-146.18;100.00;67994.34;10186725;28;20041;-75
2023/05/09 13:37:02;;;;;;;7.57;5.97;;;;;;;-146.18;100.00;67994.34;10180382;28;20427;-75
2023/05/09 13:42:08;;;;;;;6.82;6.10;;;;;;;-146.18;100.00;67994.34;10179522;28;20512;-75
2023/05/09 13:47:29;;;;;;;8.63;6.82;;;;;;;-146.18;100.00;67994.34;10177875;28;20508;-75
2023/05/09 13:52:26;;;;;;;7.72;6.97;;;;;;;-146.18;100.00;67994.34;10180800;28;20041;-76
2023/05/09 13:57:22;;;;;;;8.98;7.07;;;;;;;-146.18;100.00;67994.34;10185485;28;20046;-75
2023/05/09 14:02:19;;;;;;;7.65;6.85;;;;;;;-146.18;100.00;67994.34;10179733;28;20503;-74
2023/05/09 14:07:16;;;;;;;6.72;6.22;;;;;;;-146.18;100.00;67994.34;10180845;28;20050;-75
2023/05/09 14:12:13;;;;;;;8.13;5.78;;;;;;;-146.18;100.00;67994.34;10186147;28;20570;-75
2023/05/09 14:17:12;;;;;;;11.98;6.65;;;;;;;-146.18;100.00;67994.34;10177273;28;20103;-75
2023/05/09 14:22:08;;;;;;;8.27;6.70;;;;;;;-146.18;100.00;67994.34;10176612;28;20501;-75
2023/05/09 14:27:05;;;;;;;7.10;6.40;;;;;;;-146.18;100.00;67994.34;10183766;28;20491;-74
2023/05/09 14:32:01;;;;;;;7.03;6.32;;;;;;;-146.18;100.00;67994.34;10186238;28;20416;-76
2023/05/09 14:37:02;;;;;;;7.18;6.45;;;;;;;-146.18;100.00;67994.34;10176940;28;20038;-75
2023/05/09 14:41:59;;;;;;;7.00;6.32;;;;;;;-146.18;100.00;67994.34;10188848;28;20065;-75
2023/05/09 14:46:55;;;;;;;8.55;6.72;;;;;;;-146.18;100.00;67994.34;10184405;28;20049;-75
2023/05/09 14:51:52;;;;;;;8.10;7.30;;;;;;;-146.18;100.00;67994.34;10186311;28;20179;-75
2023/05/09 14:56:52;;;;;;;7.13;6.43;;;;;;;-146.18;100.00;67994.34;10192715;28;20041;-75
2023/05/09 15:01:51;;;;;;;11.10;6.60;;;;;;;-146.18;100.00;67994.34;10174869;28;20455;-75
2023/05/09 15:06:48;;;;;;;12.95;6.28;;;;;;;-146.18;100.00;67994.34;10181194;28;20046;-75
2023/05/09 15:18:02;;;;;;;8.52;6.90;;;;;;;-146.18;100.00;67994.34;10174951;28;20523;-76
2023/05/09 15:23:35;;;;;;;8.30;6.93;;;;;;;-146.18;100.00;67994.34;10177789;28;20450;-76
2023/05/09 15:29:14;;;;;;;8.05;6.35;;;;;;;-146.18;100.00;67994.34;10166852;28;20046;-77
2023/05/09 15:34:10;;;;;;;7.30;6.47;;;;;;;-146.18;100.00;67994.34;10181574;28;20092;-75
2023/05/09 15:39:07;;;;;;;7.90;6.60;;;;;;;-146.18;100.00;67994.34;10181527;28;20046;-75
2023/05/09 15:44:07;;;;;;;6.88;6.22;;;;;;;-146.18;100.00;67994.34;10180189;28;20677;-73
2023/05/09 15:49:03;;;;;;;8.07;6.18;;;;;;;-146.18;100.00;67994.34;10181736;28;20041;-74
2023/05/09 15:53:59;;;;;;;9.88;7.30;;;;;;;-146.18;100.00;67994.34;10187411;28;20518;-74
2023/05/09 15:58:57;;;;;;;7.20;6.38;;;;;;;-146.18;100.00;67994.34;10189753;28;20046;-75
2023/05/09 16:03:55;;;;;;;8.77;6.53;;;;;;;-146.18;100.00;67994.34;10182718;28;20654;-75
2023/05/09 16:14:22;;;;;;;8.63;6.88;;;;;;;-146.18;100.00;67994.34;10261283;26;20049;-74
2023/05/09 16:19:30;;;;;;;7.43;6.72;;;;;;;-146.18;100.00;67994.34;10269721;28;20059;-76
2023/05/09 16:24:39;;;;;;;8.30;6.60;;;;;;;-146.18;100.00;67994.34;10264371;28;20073;-75
2023/05/09 16:29:36;;;;;;;7.68;6.82;;;;;;;-146.18;100.00;67994.34;10268261;28;20044;-75
2023/05/09 16:34:41;;;;;;;12.10;7.03;;;;;;;-146.18;100.00;67994.34;10253520;28;20627;-74
2023/05/09 16:39:38;;;;;;;7.05;6.50;;;;;;;-146.18;100.00;67994.34;10252193;28;20443;-75
2023/05/09 16:44:37;;;;;;;7.88;6.50;;;;;;;-146.18;100.00;67994.34;10259543;28;20043;-74
2023/05/09 16:49:33;;;;;;;9.43;6.40;;;;;;;-146.18;100.00;67994.34;10246218;28;20041;-74
2023/05/09 16:54:31;;;;;;;7.40;6.43;;;;;;;-146.18;100.00;67994.34;10254949;28;20125;-74
2023/05/09 16:59:28;;;;;;;11.48;6.63;;;;;;;-146.18;100.00;67994.34;10247697;28;20120;-74
2023/05/09 17:04:24;;;;;;;7.50;6.20;;;;;;;-146.18;100.00;67994.34;10254169;28;20676;-74
2023/05/09 17:09:21;;;;;;;7.65;6.38;;;;;;;-146.18;100.00;67994.34;10248868;28;20072;-74
2023/05/09 17:14:17;;;;;;;6.60;5.90;;;;;;;-146.18;100.00;67994.34;10230607;28;20430;-75
2023/05/09 17:19:15;;;;;;;10.60;5.88;;;;;;;-146.18;100.00;67994.34;10236522;28;20052;-75
2023/05/09 17:24:12;;;;;;;6.07;5.40;;;;;;;-146.18;100.00;67994.34;10240789;28;20503;-74
2023/05/09 17:29:09;;;;;;;6.65;5.95;;;;;;;-146.18;100.00;67994.34;10236504;28;20049;-75
2023/05/09 17:34:05;;;;;;;10.18;5.68;;;;;;;-146.18;100.00;67994.34;10240288;28;20128;-74
2023/05/09 17:39:02;;;;;;;8.07;5.60;;;;;;;-146.18;100.00;67994.34;10239641;28;20072;-75
2023/05/09 17:43:59;;;;;;;8.40;5.72;;;;;;;-146.18;100.00;67994.34;10244002;28;20530;-75
2023/05/09 18:45:10;;;;;;;8.57;4.63;;;;;;;-146.18;100.00;67994.34;10135490;28;20540;-74
2023/05/09 19:55:50;;;;;;;6.72;5.47;;;;;;;-146.18;100.00;67994.34;9319759;26;20050;-74
2023/05/09 20:00:47;;;;;;;8.35;5.40;;;;;;;-146.18;100.00;67994.34;10154996;28;20522;-70
2023/05/09 20:05:43;;;;;;;5.65;4.80;;;;;;;-146.18;100.00;67994.34;10162336;28;20137;-69
2023/05/09 20:10:40;;;;;;;5.70;4.80;;;;;;;-146.18;100.00;67994.34;10153206;28;20082;-69
2023/05/09 20:15:38;;;;;;;5.32;4.82;;;;;;;-146.18;100.00;67994.34;10137347;28;20046;-69
2023/05/09 20:20:34;;;;;;;7.60;5.00;;;;;;;-146.18;100.00;67994.34;10149869;28;20062;-68
2023/05/09 20:25:31;;;;;;;5.13;4.63;;;;;;;-146.18;100.00;67994.34;10141025;28;20508;-71
2023/05/09 20:30:27;;;;;;;6.63;4.60;;;;;;;-146.18;100.00;67994.34;10145954;28;20054;-71
2023/05/09 20:35:24;;;;;;;7.05;4.65;;;;;;;-146.18;100.00;67994.34;10148680;28;20057;-71
2023/05/09 20:40:20;;;;;;;6.50;4.70;;;;;;;-146.18;100.00;67994.34;10144862;28;20113;-71
2023/05/09 20:45:17;;;;;;;5.75;4.30;;;;;;;-146.18;100.00;67994.34;10152080;28;20049;-72
2023/05/09 20:50:13;;;;;;;9.05;4.43;;;;;;;-146.18;100.00;67994.34;10138361;28;20492;-71
2023/05/09 20:55:10;;;;;;;6.95;4.80;;;;;;;-146.18;100.00;67994.34;10135028;28;20062;-68
2023/05/09 21:00:07;;;;;;;6.95;4.82;;;;;;;-146.18;100.00;67994.34;10136047;28;20058;-69
2023/05/09 21:05:05;;;;;;;5.68;4.60;;;;;;;-146.18;100.00;67994.34;10155572;28;20053;-69
2023/05/09 21:10:01;;;;;;;11.63;4.72;;;;;;;-146.18;100.00;67994.34;10145421;28;20128;-70
2023/05/09 21:14:58;;;;;;;5.47;4.47;;;;;;;-146.18;100.00;67994.34;10139804;28;20129;-70
2023/05/09 21:19:54;;;;;;;7.20;4.93;;;;;;;-146.18;100.00;67994.34;10140879;28;20076;-70
2023/05/09 21:24:51;;;;;;;6.53;4.50;;;;;;;-146.18;100.00;67994.34;10149478;28;20054;-71
2023/05/09 21:29:48;;;;;;;5.72;4.53;;;;;;;-146.18;100.00;67994.34;10159082;28;20054;-71
2023/05/09 21:34:46;;;;;;;4.80;4.30;;;;;;;-146.18;100.00;67994.34;10177361;28;20060;-71
2023/05/09 21:39:44;;;;;;;8.27;4.50;;;;;;;-146.18;100.00;67994.34;10169281;28;20566;-73
2023/05/09 21:44:40;;;;;;;4.97;4.13;;;;;;;-146.18;100.00;67994.34;10164477;28;20046;-73
2023/05/09 21:49:37;;;;;;;7.28;4.78;;;;;;;-146.18;100.00;67994.34;10184379;28;20081;-73
2023/05/09 21:54:34;;;;;;;5.63;4.63;;;;;;;-146.18;100.00;67994.34;10170679;28;20415;-72
2023/05/09 21:59:30;;;;;;;5.00;4.40;;;;;;;-146.18;100.00;67994.34;10177311;28;20086;-72
2023/05/09 22:04:27;;;;;;;7.43;5.30;;;;;;;-146.18;100.00;67994.34;10161568;28;20096;-72
2023/05/09 22:09:23;;;;;;;5.95;5.20;;;;;;;-146.18;100.00;67994.34;10180150;28;20054;-71
2023/05/09 22:14:20;;;;;;;5.38;4.75;;;;;;;-146.18;100.00;67994.34;10163257;28;20098;-71
2023/05/09 22:19:17;;;;;;;5.85;4.40;;;;;;;-146.18;100.00;67994.34;10176779;28;20066;-72
2023/05/09 22:24:13;;;;;;;7.18;4.70;;;;;;;-146.18;100.00;67994.34;10181724;28;20049;-69
2023/05/09 22:29:10;;;;;;;7.63;5.00;;;;;;;-146.18;100.00;67994.34;10176979;28;20081;-69
2023/05/09 22:34:06;;;;;;;5.72;4.63;;;;;;;-146.18;100.00;67994.34;10177405;28;20050;-70
2023/05/09 22:39:03;;;;;;;6.60;5.30;;;;;;;-146.18;100.00;67994.34;10180262;28;20097;-72
2023/05/09 22:43:59;;;;;;;8.00;4.93;;;;;;;-146.18;100.00;67994.34;10181868;28;20048;-73
2023/05/09 22:48:56;;;;;;;5.93;5.32;;;;;;;-146.18;100.00;67994.34;10178320;28;20411;-73
2023/05/09 22:53:52;;;;;;;6.90;5.25;;;;;;;-146.18;100.00;67994.34;10176439;28;20141;-74
2023/05/09 22:58:49;;;;;;;10.38;4.95;;;;;;;-146.18;100.00;67994.34;10188607;28;20049;-73
2023/05/09 23:03:45;;;;;;;7.40;5.43;;;;;;;-146.18;100.00;67994.34;10191274;28;20077;-69
2023/05/09 23:08:42;;;;;;;5.65;5.07;;;;;;;-146.18;100.00;67994.34;10191162;28;20063;-70
2023/05/09 23:13:38;;;;;;;8.23;4.78;;;;;;;-146.18;100.00;67994.34;10186695;28;20172;-74
2023/05/09 23:18:35;;;;;;;5.47;4.90;;;;;;;-146.18;100.00;67994.34;10185578;28;20412;-74
2023/05/09 23:23:32;;;;;;;6.90;5.45;;;;;;;-146.18;100.00;67994.34;10191502;28;20530;-70
2023/05/09 23:28:28;;;;;;;6.40;5.03;;;;;;;-146.18;100.00;67994.34;10183928;28;20046;-70
2023/05/09 23:33:25;;;;;;;6.75;5.45;;;;;;;-146.18;100.00;67994.34;10178180;28;20050;-70
2023/05/09 23:38:21;;;;;;;13.30;5.80;;;;;;;-146.18;100.00;67994.34;10184606;28;20054;-70
2023/05/09 23:43:18;;;;;;;5.70;4.70;;;;;;;-146.18;100.00;67994.34;10190210;28;20543;-71
2023/05/09 23:48:14;;;;;;;5.65;4.90;;;;;;;-146.18;100.00;67994.34;10187969;28;20064;-70
2023/05/09 23:53:11;;;;;;;7.63;5.05;;;;;;;-146.18;100.00;67994.34;10176491;28;20368;-70
2023/05/09 23:58:07;;;;;;;8.43;5.57;;;;;;;-146.18;100.00;67994.34;10166084;28;20054;-71
